Mercator — FGE8444 — position and weather

sailwx.info

Track history (hours):
 
Tides and Currents Weather Stations Pressure Air Temp Water Temp Dewpoint Dewpoint Depression Visibility Wind Speed Wind Dir Waves Ship Positions

Mercator

Last reported at 2017-Sep-21 01:27 UTC. Time now 2017-Sep-23 05:55 UTC.
Position N 47°18' W 002°09'.

Length 12 m.

Type: Dredging. MMSI: 227682070.

Date/timePositionNaut miles runAvg speedWind from/ knotsBaromVisibWave heightAir tempDewpointWater temp
2017-Sep-21 01:27N 47°18' W 002°09'0 0.0
2017-Sep-21 00:57N 47°18' W 002°09'0 0.0
2017-Sep-21 00:30N 47°18' W 002°09'0 0.0
2017-Sep-20 23:57N 47°18' W 002°09'0 0.0
2017-Sep-20 23:27N 47°18' W 002°09'0 0.0
2017-Sep-20 22:57N 47°18' W 002°09'6 0.5
2017-Sep-20 11:15N 47°17' W 001°59'412.3
2017-Sep-20 10:57N 47°17' W 001°54'4 8.4
2017-Sep-20 10:30N 47°14' W 001°50'0 0.9
2017-Sep-20 10:00N 47°14' W 001°50'0 0.8
2017-Sep-20 09:30N 47°14' W 001°50'0 0.4
2017-Sep-20 09:00N 47°14' W 001°50'1 1.8
2017-Sep-20 08:30N 47°15' W 001°51'0 0.5
2017-Sep-20 07:59N 47°15' W 001°51'2 3.7
2017-Sep-20 07:30N 47°16' W 001°53'1 2.6
2017-Sep-20 07:00N 47°17' W 001°54'4 7.0
2017-Sep-20 06:29N 47°17' W 001°60'1 0.7
2017-Sep-20 05:01N 47°17' W 002°01'0 0.1
2017-Sep-20 04:55N 47°17' W 002°01'0 0.0
2017-Sep-20 04:19N 47°17' W 002°01'0 0.0
2017-Sep-20 03:25N 47°17' W 002°01'0 0.0
2017-Sep-20 02:55N 47°17' W 002°01'0 0.0
2017-Sep-20 02:19N 47°17' W 002°01'0 0.0
2017-Sep-20 01:43N 47°17' W 002°01'0 0.0
2017-Sep-20 01:13N 47°17' W 002°01'0 0.0
2017-Sep-19 23:19N 47°17' W 002°01'0 0.0
2017-Sep-19 20:22N 47°17' W 002°01'0 0.0
2017-Sep-19 19:19N 47°17' W 002°01'0 0.0
2017-Sep-19 03:45N 47°17' W 002°01'0 0.0
2017-Sep-19 01:39N 47°17' W 002°01'0 0.0
2017-Sep-19 01:27N 47°17' W 002°01'0 0.0
2017-Sep-19 00:39N 47°17' W 002°01'0 0.0
2017-Sep-18 22:33N 47°17' W 002°01'0 0.0
2017-Sep-18 22:30N 47°17' W 002°01'0 0.0
2017-Sep-18 21:33N 47°17' W 002°01'0 0.0
2017-Sep-18 21:15N 47°17' W 002°01'0 0.0
2017-Sep-18 19:21N 47°17' W 002°01'5 0.5
2017-Sep-18 09:19N 47°17' W 001°54'411.9
2017-Sep-18 09:00N 47°14' W 001°50'4 6.5
2017-Sep-18 08:26N 47°12' W 001°46'0 0.0
2017-Sep-18 07:59N 47°12' W 001°46'0 0.0
2017-Sep-18 07:29N 47°12' W 001°46'0 0.0
2017-Sep-18 06:56N 47°12' W 001°46'0 0.0
2017-Sep-18 06:26N 47°12' W 001°46'0 0.0
2017-Sep-18 05:56N 47°12' W 001°46'0 0.0
2017-Sep-18 05:29N 47°12' W 001°46'0 0.0
2017-Sep-18 04:59N 47°12' W 001°46'0 0.0
2017-Sep-18 04:29N 47°12' W 001°46'0 0.0
2017-Sep-18 03:59N 47°12' W 001°46'0 0.0
2017-Sep-18 03:29N 47°12' W 001°46'0 0.0
2017-Sep-18 02:59N 47°12' W 001°46'0 0.0
2017-Sep-18 02:29N 47°12' W 001°46'0 0.0
2017-Sep-18 01:59N 47°12' W 001°46'0 0.0
2017-Sep-18 01:29N 47°12' W 001°46'0 0.0
2017-Sep-18 00:59N 47°12' W 001°46'0 0.0
2017-Sep-18 00:29N 47°12' W 001°46'0 0.0
2017-Sep-17 23:59N 47°12' W 001°46'0 0.0
2017-Sep-17 23:29N 47°12' W 001°46'0 0.0
2017-Sep-17 22:56N 47°12' W 001°46'0 0.0
2017-Sep-17 22:23N 47°12' W 001°46'0 0.0
2017-Sep-17 21:56N 47°12' W 001°46'0 0.0
2017-Sep-17 21:26N 47°12' W 001°46'0 0.0
2017-Sep-17 20:59N 47°12' W 001°46'0 0.0
2017-Sep-17 20:26N 47°12' W 001°46'0 0.0
2017-Sep-17 19:59N 47°12' W 001°46'0 0.0
2017-Sep-17 19:29N 47°12' W 001°46'0 0.0
2017-Sep-17 18:56N 47°12' W 001°46'0 0.0
2017-Sep-17 18:26N 47°12' W 001°46'0 0.0
2017-Sep-17 17:56N 47°12' W 001°46'0 0.0
2017-Sep-17 17:26N 47°12' W 001°46'0 0.0
2017-Sep-17 16:59N 47°12' W 001°46'0 0.0
2017-Sep-17 16:29N 47°12' W 001°46'0 0.0
2017-Sep-17 15:59N 47°12' W 001°46'0 0.0
2017-Sep-17 15:26N 47°12' W 001°46'0 0.0
2017-Sep-17 14:56N 47°12' W 001°46'0 0.0
2017-Sep-17 14:29N 47°12' W 001°46'0 0.0
2017-Sep-17 13:59N 47°12' W 001°46'0 0.0
2017-Sep-17 13:29N 47°12' W 001°46'0 0.0
2017-Sep-17 12:56N 47°12' W 001°46'0 0.0
2017-Sep-17 12:29N 47°12' W 001°46'0 0.0
2017-Sep-17 11:56N 47°12' W 001°46'0 0.0
2017-Sep-17 11:29N 47°12' W 001°46'0 0.0
2017-Sep-17 10:59N 47°12' W 001°46'0 0.0
2017-Sep-17 10:29N 47°12' W 001°46'0 0.0
2017-Sep-17 09:59N 47°12' W 001°46'0 0.0
2017-Sep-17 09:29N 47°12' W 001°46'0 0.0
2017-Sep-17 08:56N 47°12' W 001°46'0 0.0
2017-Sep-17 08:05N 47°12' W 001°46'0 0.0
2017-Sep-17 07:59N 47°12' W 001°46'0 0.0
2017-Sep-17 07:17N 47°12' W 001°46'0 0.0
2017-Sep-17 06:29N 47°12' W 001°46'0 0.0
2017-Sep-17 05:59N 47°12' W 001°46'0 0.0
2017-Sep-17 05:26N 47°12' W 001°46'0 0.0
2017-Sep-17 04:50N 47°12' W 001°46'0 0.0
2017-Sep-17 04:26N 47°12' W 001°46'0 0.0
2017-Sep-17 03:59N 47°12' W 001°46'0 0.0
2017-Sep-17 03:26N 47°12' W 001°46'0 0.0
2017-Sep-17 02:59N 47°12' W 001°46'0 0.0
2017-Sep-17 02:23N 47°12' W 001°46'0 0.0
2017-Sep-17 01:59N 47°12' W 001°46'0 0.0
2017-Sep-17 01:29N 47°12' W 001°46'0 0.0
2017-Sep-17 00:59N 47°12' W 001°46'0 0.0
2017-Sep-17 00:26N 47°12' W 001°46'0 0.0
2017-Sep-16 23:59N 47°12' W 001°46'0 0.0
2017-Sep-16 23:29N 47°12' W 001°46'0 0.0
2017-Sep-16 22:59N 47°12' W 001°46'0 0.0
2017-Sep-16 22:26N 47°12' W 001°46'0 0.0
2017-Sep-16 21:59N 47°12' W 001°46'0 0.0
2017-Sep-16 21:29N 47°12' W 001°46'0 0.0
2017-Sep-16 20:56N 47°12' W 001°46'0 0.0
2017-Sep-16 20:29N 47°12' W 001°46'0 0.0
2017-Sep-16 19:56N 47°12' W 001°46'0 0.0
2017-Sep-16 19:26N 47°12' W 001°46'0 0.0
2017-Sep-16 18:56N 47°12' W 001°46'0 0.0
2017-Sep-16 18:29N 47°12' W 001°46'0 0.0
2017-Sep-16 17:56N 47°12' W 001°46'0 0.0
2017-Sep-16 17:29N 47°12' W 001°46'0 0.0
2017-Sep-16 16:59N 47°12' W 001°46'0 0.0
2017-Sep-16 16:29N 47°12' W 001°46'0 0.0
2017-Sep-16 15:59N 47°12' W 001°46'0 0.0
2017-Sep-16 15:29N 47°12' W 001°46'0 0.0
2017-Sep-16 14:59N 47°12' W 001°46'0 0.0
2017-Sep-16 14:26N 47°12' W 001°46'0 0.0
2017-Sep-16 13:59N 47°12' W 001°46'0 0.0
2017-Sep-16 13:29N 47°12' W 001°46'0 0.0
2017-Sep-16 12:59N 47°12' W 001°46'0 0.0
2017-Sep-16 12:29N 47°12' W 001°46'0 0.0
2017-Sep-16 11:59N 47°12' W 001°46'0 0.0
2017-Sep-16 11:29N 47°12' W 001°46'0 0.0
2017-Sep-16 10:59N 47°12' W 001°46'0 0.0
2017-Sep-16 10:29N 47°12' W 001°46'0 0.0
2017-Sep-16 09:59N 47°12' W 001°46'0 0.0
2017-Sep-16 09:29N 47°12' W 001°46'0 0.0
2017-Sep-16 08:56N 47°12' W 001°46'0 0.0
2017-Sep-16 08:26N 47°12' W 001°46'0 0.0
2017-Sep-16 07:59N 47°12' W 001°46'0 0.0
2017-Sep-16 07:29N 47°12' W 001°46'0 0.0
2017-Sep-16 06:59N 47°12' W 001°46'0 0.0
2017-Sep-16 06:29N 47°12' W 001°46'0 0.0
2017-Sep-16 05:59N 47°12' W 001°46'0 0.0
2017-Sep-16 05:29N 47°12' W 001°46'0 0.0
2017-Sep-16 04:59N 47°12' W 001°46'0 0.0
2017-Sep-16 04:29N 47°12' W 001°46'0 0.0
2017-Sep-16 03:53N 47°12' W 001°46'0 0.0
2017-Sep-16 03:29N 47°12' W 001°46'0 0.0
2017-Sep-16 02:59N 47°12' W 001°46'0 0.0
2017-Sep-16 02:20N 47°12' W 001°46'0 0.0
2017-Sep-16 01:59N 47°12' W 001°46'0 0.0
2017-Sep-16 01:29N 47°12' W 001°46'0 0.0
2017-Sep-16 00:56N 47°12' W 001°46'0 0.0
2017-Sep-16 00:29N 47°12' W 001°46'0 0.0
2017-Sep-15 23:56N 47°12' W 001°46'0 0.0
2017-Sep-15 23:29N 47°12' W 001°46'0 0.0
2017-Sep-15 22:59N 47°12' W 001°46'0 0.0
2017-Sep-15 22:20N 47°12' W 001°46'0 0.0
2017-Sep-15 21:59N 47°12' W 001°46'0 0.0
2017-Sep-15 21:29N 47°12' W 001°46'0 0.0
2017-Sep-15 20:59N 47°12' W 001°46'0 0.0
2017-Sep-15 20:29N 47°12' W 001°46'0 0.0
2017-Sep-15 19:59N 47°12' W 001°46'0 0.0
2017-Sep-15 19:29N 47°12' W 001°46'0 0.0
2017-Sep-15 18:56N 47°12' W 001°46'0 0.0
2017-Sep-15 18:29N 47°12' W 001°46'0 0.0
2017-Sep-15 17:53N 47°12' W 001°46'0 0.0
2017-Sep-15 17:30N 47°12' W 001°46'0 0.0
2017-Sep-15 16:58N 47°12' W 001°46'0 0.0
2017-Sep-15 16:28N 47°12' W 001°46'0 0.0
2017-Sep-15 15:49N 47°12' W 001°46'0 0.0
2017-Sep-15 15:25N 47°12' W 001°46'0 0.0
2017-Sep-15 14:52N 47°12' W 001°46'0 0.0
2017-Sep-15 14:28N 47°12' W 001°46'0 0.0
2017-Sep-15 13:58N 47°12' W 001°46'0 0.0
2017-Sep-15 13:26N 47°12' W 001°46'0 0.3
2017-Sep-15 12:54N 47°12' W 001°46'0 0.0
2017-Sep-15 12:27N 47°12' W 001°46'0 0.0
2017-Sep-15 12:00N 47°12' W 001°46'0 0.0
2017-Sep-15 11:30N 47°12' W 001°46'0 0.0
2017-Sep-15 10:54N 47°12' W 001°46'0 0.0
2017-Sep-15 10:30N 47°12' W 001°46'0 0.0
2017-Sep-15 10:00N 47°12' W 001°46'0 0.0
2017-Sep-15 09:30N 47°12' W 001°46'0 0.0
2017-Sep-15 09:00N 47°12' W 001°46'0 0.0
2017-Sep-15 07:30N 47°12' W 001°46'0 0.0
2017-Sep-15 06:57N 47°12' W 001°46'0 0.0
2017-Sep-15 06:30N 47°12' W 001°46'0 0.3
2017-Sep-15 05:58N 47°12' W 001°46'0 0.0
2017-Sep-15 05:28N 47°12' W 001°46'0 0.0
2017-Sep-15 04:58N 47°12' W 001°46'0 0.0
2017-Sep-15 04:28N 47°12' W 001°46'0 0.0
2017-Sep-15 03:58N 47°12' W 001°46'0 0.0
2017-Sep-15 03:28N 47°12' W 001°46'0 0.0
2017-Sep-15 02:58N 47°12' W 001°46'0 0.0
2017-Sep-15 02:25N 47°12' W 001°46'0 0.0
2017-Sep-15 01:58N 47°12' W 001°46'0 0.0
2017-Sep-15 01:28N 47°12' W 001°46'0 0.0
2017-Sep-15 00:58N 47°12' W 001°46'0 0.0
2017-Sep-15 00:28N 47°12' W 001°46'0 0.0
2017-Sep-14 23:58N 47°12' W 001°46'0 0.0
2017-Sep-14 23:28N 47°12' W 001°46'0 0.0
2017-Sep-14 22:58N 47°12' W 001°46'0 0.0
2017-Sep-14 22:28N 47°12' W 001°46'0 0.0
2017-Sep-14 21:58N 47°12' W 001°46'0 0.0
2017-Sep-14 21:19N 47°12' W 001°46'0 0.0
2017-Sep-14 20:58N 47°12' W 001°46'0 0.0
2017-Sep-14 20:28N 47°12' W 001°46'0 0.0
2017-Sep-14 19:55N 47°12' W 001°46'0 0.0
2017-Sep-14 18:10N 47°12' W 001°46'0 0.0
2017-Sep-14 17:55N 47°12' W 001°46'0 0.0
2017-Sep-14 17:25N 47°12' W 001°46'0 0.0
2017-Sep-14 16:58N 47°12' W 001°46'0 0.0
2017-Sep-14 16:25N 47°12' W 001°46'0 0.0
2017-Sep-14 15:58N 47°12' W 001°46'0 0.0
2017-Sep-14 15:28N 47°12' W 001°46'0 0.0
2017-Sep-14 14:58N 47°12' W 001°46'0 0.0
2017-Sep-14 10:22N 47°12' W 001°46'2 5.8
2017-Sep-14 09:58N 47°13' W 001°49'4 8.8
2017-Sep-14 09:28N 47°16' W 001°53'0 0.2
2017-Sep-14 08:56N 47°16' W 001°53'0 0.1
2017-Sep-14 08:20N 47°16' W 001°53'0 0.3
2017-Sep-14 08:00N 47°16' W 001°53'1 2.2
2017-Sep-14 07:30N 47°17' W 001°54'  
Track history (hours):
 
Tides and Currents Weather Stations Pressure Air Temp Water Temp Dewpoint Dewpoint Depression Visibility Wind Speed Wind Dir Waves Ship Positions

Mercator

Last reported at 2017-Sep-21 01:27 UTC. Time now 2017-Sep-23 05:55 UTC.
Position N 47°18' W 002°09'.

Length 12 m.

Type: Dredging. MMSI: 227682070.

Date/timePositionNaut miles runAvg speedWind from/ knotsBaromVisibWave heightAir tempDewpointWater temp
2017-Sep-21 01:27N 47°18' W 002°09'0 0.0
2017-Sep-21 00:57N 47°18' W 002°09'0 0.0
2017-Sep-21 00:30N 47°18' W 002°09'0 0.0
2017-Sep-20 23:57N 47°18' W 002°09'0 0.0
2017-Sep-20 23:27N 47°18' W 002°09'0 0.0
2017-Sep-20 22:57N 47°18' W 002°09'6 0.5
2017-Sep-20 11:15N 47°17' W 001°59'412.3
2017-Sep-20 10:57N 47°17' W 001°54'4 8.4
2017-Sep-20 10:30N 47°14' W 001°50'0 0.9
2017-Sep-20 10:00N 47°14' W 001°50'0 0.8
2017-Sep-20 09:30N 47°14' W 001°50'0 0.4
2017-Sep-20 09:00N 47°14' W 001°50'1 1.8
2017-Sep-20 08:30N 47°15' W 001°51'0 0.5
2017-Sep-20 07:59N 47°15' W 001°51'2 3.7
2017-Sep-20 07:30N 47°16' W 001°53'1 2.6
2017-Sep-20 07:00N 47°17' W 001°54'4 7.0
2017-Sep-20 06:29N 47°17' W 001°60'1 0.7
2017-Sep-20 05:01N 47°17' W 002°01'0 0.1
2017-Sep-20 04:55N 47°17' W 002°01'0 0.0
2017-Sep-20 04:19N 47°17' W 002°01'0 0.0
2017-Sep-20 03:25N 47°17' W 002°01'0 0.0
2017-Sep-20 02:55N 47°17' W 002°01'0 0.0
2017-Sep-20 02:19N 47°17' W 002°01'0 0.0
2017-Sep-20 01:43N 47°17' W 002°01'0 0.0
2017-Sep-20 01:13N 47°17' W 002°01'0 0.0
2017-Sep-19 23:19N 47°17' W 002°01'0 0.0
2017-Sep-19 20:22N 47°17' W 002°01'0 0.0
2017-Sep-19 19:19N 47°17' W 002°01'0 0.0
2017-Sep-19 03:45N 47°17' W 002°01'0 0.0
2017-Sep-19 01:39N 47°17' W 002°01'0 0.0
2017-Sep-19 01:27N 47°17' W 002°01'0 0.0
2017-Sep-19 00:39N 47°17' W 002°01'0 0.0
2017-Sep-18 22:33N 47°17' W 002°01'0 0.0
2017-Sep-18 22:30N 47°17' W 002°01'0 0.0
2017-Sep-18 21:33N 47°17' W 002°01'0 0.0
2017-Sep-18 21:15N 47°17' W 002°01'0 0.0
2017-Sep-18 19:21N 47°17' W 002°01'5 0.5
2017-Sep-18 09:19N 47°17' W 001°54'411.9
2017-Sep-18 09:00N 47°14' W 001°50'4 6.5
2017-Sep-18 08:26N 47°12' W 001°46'0 0.0
2017-Sep-18 07:59N 47°12' W 001°46'0 0.0
2017-Sep-18 07:29N 47°12' W 001°46'0 0.0
2017-Sep-18 06:56N 47°12' W 001°46'0 0.0
2017-Sep-18 06:26N 47°12' W 001°46'0 0.0
2017-Sep-18 05:56N 47°12' W 001°46'0 0.0
2017-Sep-18 05:29N 47°12' W 001°46'0 0.0
2017-Sep-18 04:59N 47°12' W 001°46'0 0.0
2017-Sep-18 04:29N 47°12' W 001°46'0 0.0
2017-Sep-18 03:59N 47°12' W 001°46'0 0.0
2017-Sep-18 03:29N 47°12' W 001°46'0 0.0
2017-Sep-18 02:59N 47°12' W 001°46'0 0.0
2017-Sep-18 02:29N 47°12' W 001°46'0 0.0
2017-Sep-18 01:59N 47°12' W 001°46'0 0.0
2017-Sep-18 01:29N 47°12' W 001°46'0 0.0
2017-Sep-18 00:59N 47°12' W 001°46'0 0.0
2017-Sep-18 00:29N 47°12' W 001°46'0 0.0
2017-Sep-17 23:59N 47°12' W 001°46'0 0.0
2017-Sep-17 23:29N 47°12' W 001°46'0 0.0
2017-Sep-17 22:56N 47°12' W 001°46'0 0.0
2017-Sep-17 22:23N 47°12' W 001°46'0 0.0
2017-Sep-17 21:56N 47°12' W 001°46'0 0.0
2017-Sep-17 21:26N 47°12' W 001°46'0 0.0
2017-Sep-17 20:59N 47°12' W 001°46'0 0.0
2017-Sep-17 20:26N 47°12' W 001°46'0 0.0
2017-Sep-17 19:59N 47°12' W 001°46'0 0.0
2017-Sep-17 19:29N 47°12' W 001°46'0 0.0
2017-Sep-17 18:56N 47°12' W 001°46'0 0.0
2017-Sep-17 18:26N 47°12' W 001°46'0 0.0
2017-Sep-17 17:56N 47°12' W 001°46'0 0.0
2017-Sep-17 17:26N 47°12' W 001°46'0 0.0
2017-Sep-17 16:59N 47°12' W 001°46'0 0.0
2017-Sep-17 16:29N 47°12' W 001°46'0 0.0
2017-Sep-17 15:59N 47°12' W 001°46'0 0.0
2017-Sep-17 15:26N 47°12' W 001°46'0 0.0
2017-Sep-17 14:56N 47°12' W 001°46'0 0.0
2017-Sep-17 14:29N 47°12' W 001°46'0 0.0
2017-Sep-17 13:59N 47°12' W 001°46'0 0.0
2017-Sep-17 13:29N 47°12' W 001°46'0 0.0
2017-Sep-17 12:56N 47°12' W 001°46'0 0.0
2017-Sep-17 12:29N 47°12' W 001°46'0 0.0
2017-Sep-17 11:56N 47°12' W 001°46'0 0.0
2017-Sep-17 11:29N 47°12' W 001°46'0 0.0
2017-Sep-17 10:59N 47°12' W 001°46'0 0.0
2017-Sep-17 10:29N 47°12' W 001°46'0 0.0
2017-Sep-17 09:59N 47°12' W 001°46'0 0.0
2017-Sep-17 09:29N 47°12' W 001°46'0 0.0
2017-Sep-17 08:56N 47°12' W 001°46'0 0.0
2017-Sep-17 08:05N 47°12' W 001°46'0 0.0
2017-Sep-17 07:59N 47°12' W 001°46'0 0.0
2017-Sep-17 07:17N 47°12' W 001°46'0 0.0
2017-Sep-17 06:29N 47°12' W 001°46'0 0.0
2017-Sep-17 05:59N 47°12' W 001°46'0 0.0
2017-Sep-17 05:26N 47°12' W 001°46'0 0.0
2017-Sep-17 04:50N 47°12' W 001°46'0 0.0
2017-Sep-17 04:26N 47°12' W 001°46'0 0.0
2017-Sep-17 03:59N 47°12' W 001°46'0 0.0
2017-Sep-17 03:26N 47°12' W 001°46'0 0.0
2017-Sep-17 02:59N 47°12' W 001°46'0 0.0
2017-Sep-17 02:23N 47°12' W 001°46'0 0.0
2017-Sep-17 01:59N 47°12' W 001°46'0 0.0
2017-Sep-17 01:29N 47°12' W 001°46'0 0.0
2017-Sep-17 00:59N 47°12' W 001°46'0 0.0
2017-Sep-17 00:26N 47°12' W 001°46'0 0.0
2017-Sep-16 23:59N 47°12' W 001°46'0 0.0
2017-Sep-16 23:29N 47°12' W 001°46'0 0.0
2017-Sep-16 22:59N 47°12' W 001°46'0 0.0
2017-Sep-16 22:26N 47°12' W 001°46'0 0.0
2017-Sep-16 21:59N 47°12' W 001°46'0 0.0
2017-Sep-16 21:29N 47°12' W 001°46'0 0.0
2017-Sep-16 20:56N 47°12' W 001°46'0 0.0
2017-Sep-16 20:29N 47°12' W 001°46'0 0.0
2017-Sep-16 19:56N 47°12' W 001°46'0 0.0
2017-Sep-16 19:26N 47°12' W 001°46'0 0.0
2017-Sep-16 18:56N 47°12' W 001°46'0 0.0
2017-Sep-16 18:29N 47°12' W 001°46'0 0.0
2017-Sep-16 17:56N 47°12' W 001°46'0 0.0
2017-Sep-16 17:29N 47°12' W 001°46'0 0.0
2017-Sep-16 16:59N 47°12' W 001°46'0 0.0
2017-Sep-16 16:29N 47°12' W 001°46'0 0.0
2017-Sep-16 15:59N 47°12' W 001°46'0 0.0
2017-Sep-16 15:29N 47°12' W 001°46'0 0.0
2017-Sep-16 14:59N 47°12' W 001°46'0 0.0
2017-Sep-16 14:26N 47°12' W 001°46'0 0.0
2017-Sep-16 13:59N 47°12' W 001°46'0 0.0
2017-Sep-16 13:29N 47°12' W 001°46'0 0.0
2017-Sep-16 12:59N 47°12' W 001°46'0 0.0
2017-Sep-16 12:29N 47°12' W 001°46'0 0.0
2017-Sep-16 11:59N 47°12' W 001°46'0 0.0
2017-Sep-16 11:29N 47°12' W 001°46'0 0.0
2017-Sep-16 10:59N 47°12' W 001°46'0 0.0
2017-Sep-16 10:29N 47°12' W 001°46'0 0.0
2017-Sep-16 09:59N 47°12' W 001°46'0 0.0
2017-Sep-16 09:29N 47°12' W 001°46'0 0.0
2017-Sep-16 08:56N 47°12' W 001°46'0 0.0
2017-Sep-16 08:26N 47°12' W 001°46'0 0.0
2017-Sep-16 07:59N 47°12' W 001°46'0 0.0
2017-Sep-16 07:29N 47°12' W 001°46'0 0.0
2017-Sep-16 06:59N 47°12' W 001°46'0 0.0
2017-Sep-16 06:29N 47°12' W 001°46'0 0.0
2017-Sep-16 05:59N 47°12' W 001°46'0 0.0
2017-Sep-16 05:29N 47°12' W 001°46'0 0.0
2017-Sep-16 04:59N 47°12' W 001°46'0 0.0
2017-Sep-16 04:29N 47°12' W 001°46'0 0.0
2017-Sep-16 03:53N 47°12' W 001°46'0 0.0
2017-Sep-16 03:29N 47°12' W 001°46'0 0.0
2017-Sep-16 02:59N 47°12' W 001°46'0 0.0
2017-Sep-16 02:20N 47°12' W 001°46'0 0.0
2017-Sep-16 01:59N 47°12' W 001°46'0 0.0
2017-Sep-16 01:29N 47°12' W 001°46'0 0.0
2017-Sep-16 00:56N 47°12' W 001°46'0 0.0
2017-Sep-16 00:29N 47°12' W 001°46'0 0.0
2017-Sep-15 23:56N 47°12' W 001°46'0 0.0
2017-Sep-15 23:29N 47°12' W 001°46'0 0.0
2017-Sep-15 22:59N 47°12' W 001°46'0 0.0
2017-Sep-15 22:20N 47°12' W 001°46'0 0.0
2017-Sep-15 21:59N 47°12' W 001°46'0 0.0
2017-Sep-15 21:29N 47°12' W 001°46'0 0.0
2017-Sep-15 20:59N 47°12' W 001°46'0 0.0
2017-Sep-15 20:29N 47°12' W 001°46'0 0.0
2017-Sep-15 19:59N 47°12' W 001°46'0 0.0
2017-Sep-15 19:29N 47°12' W 001°46'0 0.0
2017-Sep-15 18:56N 47°12' W 001°46'0 0.0
2017-Sep-15 18:29N 47°12' W 001°46'0 0.0
2017-Sep-15 17:53N 47°12' W 001°46'0 0.0
2017-Sep-15 17:30N 47°12' W 001°46'0 0.0
2017-Sep-15 16:58N 47°12' W 001°46'0 0.0
2017-Sep-15 16:28N 47°12' W 001°46'0 0.0
2017-Sep-15 15:49N 47°12' W 001°46'0 0.0
2017-Sep-15 15:25N 47°12' W 001°46'0 0.0
2017-Sep-15 14:52N 47°12' W 001°46'0 0.0
2017-Sep-15 14:28N 47°12' W 001°46'0 0.0
2017-Sep-15 13:58N 47°12' W 001°46'0 0.0
2017-Sep-15 13:26N 47°12' W 001°46'0 0.3
2017-Sep-15 12:54N 47°12' W 001°46'0 0.0
2017-Sep-15 12:27N 47°12' W 001°46'0 0.0
2017-Sep-15 12:00N 47°12' W 001°46'0 0.0
2017-Sep-15 11:30N 47°12' W 001°46'0 0.0
2017-Sep-15 10:54N 47°12' W 001°46'0 0.0
2017-Sep-15 10:30N 47°12' W 001°46'0 0.0
2017-Sep-15 10:00N 47°12' W 001°46'0 0.0
2017-Sep-15 09:30N 47°12' W 001°46'0 0.0
2017-Sep-15 09:00N 47°12' W 001°46'0 0.0
2017-Sep-15 07:30N 47°12' W 001°46'0 0.0
2017-Sep-15 06:57N 47°12' W 001°46'0 0.0
2017-Sep-15 06:30N 47°12' W 001°46'0 0.3
2017-Sep-15 05:58N 47°12' W 001°46'0 0.0
2017-Sep-15 05:28N 47°12' W 001°46'0 0.0
2017-Sep-15 04:58N 47°12' W 001°46'0 0.0
2017-Sep-15 04:28N 47°12' W 001°46'0 0.0
2017-Sep-15 03:58N 47°12' W 001°46'0 0.0
2017-Sep-15 03:28N 47°12' W 001°46'0 0.0
2017-Sep-15 02:58N 47°12' W 001°46'0 0.0
2017-Sep-15 02:25N 47°12' W 001°46'0 0.0
2017-Sep-15 01:58N 47°12' W 001°46'0 0.0
2017-Sep-15 01:28N 47°12' W 001°46'0 0.0
2017-Sep-15 00:58N 47°12' W 001°46'0 0.0
2017-Sep-15 00:28N 47°12' W 001°46'0 0.0
2017-Sep-14 23:58N 47°12' W 001°46'0 0.0
2017-Sep-14 23:28N 47°12' W 001°46'0 0.0
2017-Sep-14 22:58N 47°12' W 001°46'0 0.0
2017-Sep-14 22:28N 47°12' W 001°46'0 0.0
2017-Sep-14 21:58N 47°12' W 001°46'0 0.0
2017-Sep-14 21:19N 47°12' W 001°46'0 0.0
2017-Sep-14 20:58N 47°12' W 001°46'0 0.0
2017-Sep-14 20:28N 47°12' W 001°46'0 0.0
2017-Sep-14 19:55N 47°12' W 001°46'0 0.0
2017-Sep-14 18:10N 47°12' W 001°46'0 0.0
2017-Sep-14 17:55N 47°12' W 001°46'0 0.0
2017-Sep-14 17:25N 47°12' W 001°46'0 0.0
2017-Sep-14 16:58N 47°12' W 001°46'0 0.0
2017-Sep-14 16:25N 47°12' W 001°46'0 0.0
2017-Sep-14 15:58N 47°12' W 001°46'0 0.0
2017-Sep-14 15:28N 47°12' W 001°46'0 0.0
2017-Sep-14 14:58N 47°12' W 001°46'0 0.0
2017-Sep-14 10:22N 47°12' W 001°46'2 5.8
2017-Sep-14 09:58N 47°13' W 001°49'4 8.8
2017-Sep-14 09:28N 47°16' W 001°53'0 0.2
2017-Sep-14 08:56N 47°16' W 001°53'0 0.1
2017-Sep-14 08:20N 47°16' W 001°53'0 0.3
2017-Sep-14 08:00N 47°16' W 001°53'1 2.2
2017-Sep-14 07:30N 47°17' W 001°54'  

Dump ship's entire track history